Time;durP1;ratioP1;P1;durP2;ratioP2;P2;SDS_P1;SDS_P2;PMS_P1;PMS_P2;Temp;Humidity;BMP_temperature;BMP_pressure;BME280_temperature;BME280_humidity;BME280_pressure;Samples;Min_cycle;Max_cycle;Signal;HPM_P1;HPM_P2
2023/12/28 00:01:14;;;;;;;13.17;8.90;;;;;;;1.77;100.00;100072.38;5053437;28;20236;-66
2023/12/28 00:03:41;;;;;;;15.33;9.13;;;;;;;1.78;100.00;100073.22;5067957;28;20199;-66
2023/12/28 00:06:06;;;;;;;15.23;9.07;;;;;;;1.71;100.00;100069.97;5069763;28;20165;-65
2023/12/28 00:08:32;;;;;;;10.83;8.67;;;;;;;1.55;100.00;100059.25;5069984;28;20693;-67
2023/12/28 00:10:57;;;;;;;10.57;8.57;;;;;;;1.60;100.00;100054.94;5060302;28;20812;-68
2023/12/28 00:13:23;;;;;;;12.37;9.40;;;;;;;1.72;100.00;100063.19;5065649;28;20193;-68
2023/12/28 00:15:48;;;;;;;14.97;8.87;;;;;;;1.75;100.00;100050.44;5062408;28;20185;-69
2023/12/28 00:18:13;;;;;;;14.47;9.20;;;;;;;1.85;100.00;100053.63;5063788;28;20196;-69
2023/12/28 00:20:38;;;;;;;12.80;9.07;;;;;;;1.77;100.00;100054.63;5054104;28;20235;-70
2023/12/28 00:23:05;;;;;;;10.60;7.90;;;;;;;1.90;100.00;100065.38;5061325;28;20189;-68
2023/12/28 00:25:30;;;;;;;10.23;8.67;;;;;;;1.91;100.00;100056.03;5063533;28;20631;-68
2023/12/28 00:27:56;;;;;;;13.73;8.70;;;;;;;1.96;100.00;100055.97;5065767;28;20192;-69
2023/12/28 00:30:21;;;;;;;16.90;8.97;;;;;;;2.04;100.00;100059.19;5037648;27;20637;-69
2023/12/28 00:32:46;;;;;;;13.13;8.97;;;;;;;2.06;100.00;100057.44;5043645;28;20195;-68
2023/12/28 00:35:11;;;;;;;13.90;10.00;;;;;;;2.09;100.00;100054.84;5051699;28;20621;-67
2023/12/28 00:37:37;;;;;;;17.30;9.37;;;;;;;2.15;100.00;100061.53;5049620;28;20178;-68
2023/12/28 00:40:02;;;;;;;14.37;9.07;;;;;;;2.16;100.00;100061.47;5051593;28;20332;-70
2023/12/28 00:42:28;;;;;;;14.30;9.03;;;;;;;2.31;100.00;100055.25;5049377;28;20197;-69
2023/12/28 00:44:53;;;;;;;10.73;8.27;;;;;;;2.35;100.00;100056.03;5059282;28;20219;-70
2023/12/28 00:47:18;;;;;;;15.57;10.13;;;;;;;2.42;100.00;100055.84;5057514;28;20182;-66
2023/12/28 00:49:43;;;;;;;13.63;8.70;;;;;;;2.34;100.00;100051.81;5058808;28;20181;-67
2023/12/28 00:52:09;;;;;;;15.27;9.00;;;;;;;2.32;100.00;100046.78;5059394;28;20668;-71
2023/12/28 00:54:36;;;;;;;18.10;9.67;;;;;;;2.15;100.00;100044.56;5073002;28;20178;-70
2023/12/28 00:57:03;;;;;;;15.33;8.97;;;;;;;2.39;100.00;100042.38;5066818;28;20572;-71
2023/12/28 00:59:29;;;;;;;11.53;8.47;;;;;;;2.41;100.00;100043.19;5062841;28;20197;-69
2023/12/28 01:01:55;;;;;;;12.10;8.83;;;;;;;2.50;100.00;100030.28;5050607;28;20293;-69
2023/12/28 01:04:23;;;;;;;10.50;8.47;;;;;;;2.65;100.00;100023.19;5054737;28;20649;-72
2023/12/28 01:06:48;;;;;;;12.43;8.93;;;;;;;2.56;100.00;100014.91;5051187;28;20231;-68
2023/12/28 01:09:13;;;;;;;15.63;9.37;;;;;;;2.73;100.00;100026.41;5053762;28;20200;-70
2023/12/28 01:11:38;;;;;;;10.70;7.93;;;;;;;2.86;100.00;100043.00;5075642;28;20302;-69
2023/12/28 01:14:04;;;;;;;12.27;8.53;;;;;;;2.97;100.00;100055.47;5076122;28;20180;-71
2023/12/28 01:16:29;;;;;;;13.00;7.97;;;;;;;3.07;100.00;100066.25;5072336;28;20181;-69
2023/12/28 01:18:54;;;;;;;16.50;8.60;;;;;;;3.00;100.00;100079.97;5072542;28;20661;-69
2023/12/28 01:21:20;;;;;;;12.13;8.90;;;;;;;3.08;100.00;100073.00;5071243;28;20265;-68
2023/12/28 01:23:46;;;;;;;15.43;8.47;;;;;;;3.27;100.00;100075.91;5077679;28;20189;-68
2023/12/28 01:26:14;;;;;;;13.70;8.63;;;;;;;3.31;100.00;100082.63;5072078;28;20169;-68
2023/12/28 01:28:40;;;;;;;10.30;8.00;;;;;;;3.38;100.00;100079.03;5070112;28;20215;-69
2023/12/28 01:31:05;;;;;;;10.97;7.30;;;;;;;3.53;100.00;100084.59;5067682;28;20291;-68
2023/12/28 01:33:30;;;;;;;11.10;7.53;;;;;;;3.52;100.00;100077.84;5060477;28;20182;-68
2023/12/28 01:35:55;;;;;;;13.00;8.10;;;;;;;3.58;100.00;100085.31;5064658;28;20185;-68
2023/12/28 01:38:21;;;;;;;10.73;7.73;;;;;;;3.60;100.00;100086.13;5048540;28;20190;-67
2023/12/28 01:40:46;;;;;;;11.07;7.73;;;;;;;3.60;100.00;100090.34;5048934;28;20238;-68
2023/12/28 01:43:11;;;;;;;12.53;7.10;;;;;;;3.74;100.00;100101.03;5062426;28;20185;-68
2023/12/28 01:45:36;;;;;;;10.50;7.40;;;;;;;3.76;100.00;100098.44;5053015;28;20197;-68
2023/12/28 01:48:02;;;;;;;11.43;7.73;;;;;;;3.79;100.00;100098.38;5051036;28;20267;-68
2023/12/28 01:50:28;;;;;;;11.40;7.63;;;;;;;3.85;100.00;100099.03;5044503;28;20281;-68
2023/12/28 01:52:55;;;;;;;10.23;7.77;;;;;;;3.85;100.00;100108.38;5051705;28;20182;-68
2023/12/28 01:55:21;;;;;;;11.70;7.70;;;;;;;4.07;100.00;100107.78;5071209;28;20204;-67
2023/12/28 01:57:47;;;;;;;10.47;7.97;;;;;;;4.16;100.00;100112.63;5058687;28;20202;-67
2023/12/28 02:00:13;;;;;;;10.83;7.63;;;;;;;4.19;100.00;100107.44;5039567;28;20278;-67
2023/12/28 02:02:39;;;;;;;13.00;7.90;;;;;;;4.14;100.00;100104.19;5050810;28;20594;-68
2023/12/28 02:05:05;;;;;;;11.77;8.50;;;;;;;4.26;100.00;100101.31;5052806;28;20180;-68
2023/12/28 02:07:32;;;;;;;15.00;8.07;;;;;;;4.36;100.00;100119.72;5052435;28;20322;-69
2023/12/28 02:09:57;;;;;;;12.73;7.30;;;;;;;4.34;100.00;100124.84;5051424;28;20243;-68
2023/12/28 02:12:23;;;;;;;9.83;7.80;;;;;;;4.43;100.00;100130.53;5057684;28;20229;-67
2023/12/28 02:14:48;;;;;;;12.27;7.63;;;;;;;4.52;100.00;100125.19;5052964;28;20231;-68
2023/12/28 02:17:26;;;;;;;10.47;7.60;;;;;;;4.66;100.00;100135.84;5051932;28;20703;-67
2023/12/28 02:19:55;;;;;;;10.50;7.40;;;;;;;4.70;100.00;100128.91;5050989;28;20239;-68
2023/12/28 02:22:23;;;;;;;11.83;7.60;;;;;;;4.58;100.00;100121.66;5041497;28;20231;-68
2023/12/28 02:25:06;;;;;;;14.17;8.60;;;;;;;4.66;100.00;100122.25;5051335;28;20177;-68
2023/12/28 02:27:31;;;;;;;10.07;8.43;;;;;;;4.73;100.00;100133.09;5051064;28;20184;-68
2023/12/28 02:29:57;;;;;;;11.37;8.07;;;;;;;4.62;100.00;100133.41;5052878;28;20197;-69
2023/12/28 02:32:35;;;;;;;11.17;7.47;;;;;;;4.75;100.00;100139.81;5058223;28;20717;-68
2023/12/28 02:35:13;;;;;;;10.40;6.60;;;;;;;4.92;100.00;100138.47;5059947;28;20190;-69
2023/12/28 02:37:39;;;;;;;6.93;5.60;;;;;;;5.14;100.00;100133.53;5068549;28;20837;-68
2023/12/28 02:40:06;;;;;;;6.23;4.43;;;;;;;5.40;100.00;100129.34;5062086;28;20239;-69
2023/12/28 02:42:31;;;;;;;6.03;4.13;;;;;;;5.65;100.00;100130.16;5054076;28;20264;-69
2023/12/28 02:44:56;;;;;;;4.73;4.07;;;;;;;5.77;100.00;100118.72;5052175;28;20370;-68
2023/12/28 02:47:22;;;;;;;8.07;4.67;;;;;;;6.11;100.00;100117.56;5051467;28;20181;-69
2023/12/28 02:49:47;;;;;;;5.80;3.60;;;;;;;6.37;100.00;100114.97;5051735;28;20174;-68
2023/12/28 02:52:12;;;;;;;5.67;4.03;;;;;;;6.46;100.00;100112.91;5041480;28;20225;-68
2023/12/28 02:54:37;;;;;;;5.40;4.63;;;;;;;6.58;100.00;100101.38;5050540;28;20173;-67
2023/12/28 02:57:03;;;;;;;7.10;4.10;;;;;;;6.74;100.00;100121.25;5064656;28;20176;-68
2023/12/28 02:59:28;;;;;;;5.57;3.80;;;;;;;6.74;100.00;100116.97;5070203;28;20185;-70
2023/12/28 03:01:54;;;;;;;5.07;4.00;;;;;;;6.79;100.00;100109.94;5073796;28;20238;-69
2023/12/28 03:04:19;;;;;;;6.20;3.80;;;;;;;6.79;100.00;100092.03;5058737;28;20188;-73
2023/12/28 03:06:46;;;;;;;5.43;3.90;;;;;;;6.98;100.00;100080.28;5070694;28;20177;-71
2023/12/28 03:09:11;;;;;;;4.40;3.73;;;;;;;7.05;100.00;100082.50;5069878;28;20172;-69
2023/12/28 03:11:36;;;;;;;4.40;3.80;;;;;;;6.99;100.00;100098.09;5058136;28;20220;-68
2023/12/28 03:14:02;;;;;;;3.93;3.10;;;;;;;6.91;100.00;100090.75;5063154;28;20173;-69
2023/12/28 03:16:27;;;;;;;4.97;4.07;;;;;;;7.12;100.00;100103.59;5069257;28;20756;-69
2023/12/28 03:18:52;;;;;;;3.50;3.00;;;;;;;7.06;100.00;100096.16;5071608;28;20211;-69
2023/12/28 03:21:17;;;;;;;3.70;3.00;;;;;;;7.16;100.00;100101.72;5070050;28;20368;-68
2023/12/28 03:23:44;;;;;;;3.17;2.87;;;;;;;7.26;100.00;100100.47;5076915;28;20306;-69
2023/12/28 03:26:09;;;;;;;4.03;3.53;;;;;;;7.18;100.00;100117.84;5070763;28;20185;-72
2023/12/28 03:28:34;;;;;;;3.47;3.17;;;;;;;7.09;100.00;100106.25;5070978;28;20661;-70
2023/12/28 03:31:02;;;;;;;3.70;3.30;;;;;;;7.10;100.00;100103.63;5066725;28;20224;-68
2023/12/28 03:33:27;;;;;;;4.00;3.60;;;;;;;7.23;100.00;100111.66;5058407;28;20176;-68
2023/12/28 03:35:52;;;;;;;4.83;3.83;;;;;;;7.23;100.00;100124.44;5054806;28;20192;-68
2023/12/28 03:38:18;;;;;;;3.30;2.97;;;;;;;7.28;100.00;100119.13;5050697;28;20658;-68
2023/12/28 03:40:46;;;;;;;4.23;2.90;;;;;;;7.24;100.00;100120.16;5046040;28;20349;-69
2023/12/28 03:43:12;;;;;;;3.23;2.80;;;;;;;7.32;100.00;100127.50;5059072;28;20185;-68
2023/12/28 03:45:37;;;;;;;4.63;3.30;;;;;;;7.35;100.00;100114.59;5055354;28;20539;-68
2023/12/28 03:48:03;;;;;;;6.60;3.57;;;;;;;7.30;100.00;100112.22;5066935;28;20196;-68
2023/12/28 03:50:28;;;;;;;4.47;3.40;;;;;;;7.30;100.00;100121.63;5054875;28;20255;-68
2023/12/28 03:52:54;;;;;;;4.10;3.63;;;;;;;7.40;100.00;100126.28;5065193;28;20260;-68
2023/12/28 03:55:19;;;;;;;4.80;3.53;;;;;;;7.32;100.00;100130.91;5061700;28;20181;-72
2023/12/28 03:57:46;;;;;;;4.17;3.77;;;;;;;7.30;100.00;100134.44;5066610;28;20185;-70
2023/12/28 04:00:12;;;;;;;6.60;4.13;;;;;;;7.34;100.00;100123.16;5048625;28;20703;-70
2023/12/28 04:02:37;;;;;;;5.27;3.40;;;;;;;7.37;100.00;100134.13;5067540;28;20235;-70
2023/12/28 04:05:04;;;;;;;6.40;3.87;;;;;;;7.35;100.00;100120.53;5065783;28;20238;-70
2023/12/28 04:07:29;;;;;;;3.80;3.30;;;;;;;7.40;100.00;100130.59;5073578;28;20176;-71
2023/12/28 04:09:56;;;;;;;5.60;3.60;;;;;;;7.29;100.00;100133.59;5073407;28;20222;-71
2023/12/28 04:12:21;;;;;;;3.80;3.40;;;;;;;7.31;100.00;100113.06;5073746;28;20224;-69
2023/12/28 04:14:46;;;;;;;3.70;3.30;;;;;;;7.27;100.00;100128.53;5055345;28;20268;-70
2023/12/28 04:17:12;;;;;;;4.37;3.33;;;;;;;7.35;100.00;100133.34;5052798;28;20169;-70
2023/12/28 04:19:37;;;;;;;5.13;3.37;;;;;;;7.37;100.00;100131.56;5066557;28;20224;-70
2023/12/28 04:22:02;;;;;;;4.30;3.57;;;;;;;7.48;100.00;100145.63;5061269;28;20619;-70
2023/12/28 04:24:27;;;;;;;3.63;3.30;;;;;;;7.55;100.00;100144.47;5065954;28;20181;-70
2023/12/28 04:26:53;;;;;;;3.17;2.77;;;;;;;7.48;100.00;100146.47;5060482;28;20177;-70
2023/12/28 04:29:18;;;;;;;3.87;3.47;;;;;;;7.51;100.00;100137.84;5073859;28;20180;-70
2023/12/28 04:31:43;;;;;;;4.57;3.53;;;;;;;7.62;100.00;100130.53;5034272;27;20229;-68
2023/12/28 04:34:08;;;;;;;5.67;3.37;;;;;;;7.68;100.00;100129.47;5065120;28;20662;-68
2023/12/28 04:36:40;;;;;;;3.73;3.43;;;;;;;7.57;100.00;100151.22;5073608;28;20195;-69
2023/12/28 04:39:05;;;;;;;4.63;2.80;;;;;;;7.60;100.00;100152.81;5073350;28;20187;-68
2023/12/28 04:41:31;;;;;;;4.23;3.83;;;;;;;7.61;100.00;100148.53;5075096;28;20224;-69
2023/12/28 04:43:56;;;;;;;4.50;3.47;;;;;;;7.46;100.00;100152.56;5076164;28;20211;-70
2023/12/28 04:46:21;;;;;;;6.73;3.47;;;;;;;7.53;100.00;100141.16;5073715;28;20223;-76
2023/12/28 04:48:46;;;;;;;3.90;3.50;;;;;;;7.65;100.00;100152.63;5071844;28;20188;-69
2023/12/28 04:51:12;;;;;;;4.87;3.40;;;;;;;7.56;100.00;100154.66;5072460;28;20212;-69
2023/12/28 04:53:39;;;;;;;4.40;2.93;;;;;;;7.46;100.00;100178.16;5079170;28;20177;-69
2023/12/28 04:56:05;;;;;;;4.70;3.30;;;;;;;7.57;100.00;100168.31;5072857;28;20192;-71
2023/12/28 04:58:30;;;;;;;4.00;3.30;;;;;;;7.67;100.00;100163.66;5072418;28;20173;-69
2023/12/28 05:00:55;;;;;;;3.50;3.20;;;;;;;7.74;100.00;100180.41;5062589;28;20224;-70
2023/12/28 05:03:20;;;;;;;4.23;3.00;;;;;;;7.81;100.00;100178.44;5062335;28;20193;-70
2023/12/28 05:05:46;;;;;;;3.50;3.00;;;;;;;7.59;100.00;100176.72;5072598;28;20180;-70
2023/12/28 05:08:11;;;;;;;4.20;3.40;;;;;;;7.79;100.00;100190.44;5070735;28;20176;-70
2023/12/28 05:10:36;;;;;;;4.40;2.90;;;;;;;7.75;100.00;100190.59;5067351;28;20234;-69
2023/12/28 05:13:01;;;;;;;6.20;3.37;;;;;;;7.83;100.00;100192.81;5082813;28;20516;-69
2023/12/28 05:15:27;;;;;;;4.53;3.50;;;;;;;7.66;100.00;100200.38;5073259;28;20181;-69
2023/12/28 05:17:52;;;;;;;4.60;3.57;;;;;;;7.63;100.00;100197.94;5071411;28;20195;-73
2023/12/28 05:20:17;;;;;;;4.87;3.67;;;;;;;7.61;100.00;100192.88;5064495;28;20284;-70
2023/12/28 05:22:43;;;;;;;6.77;4.07;;;;;;;7.65;100.00;100181.59;5085146;28;20180;-76
2023/12/28 05:25:08;;;;;;;3.90;3.40;;;;;;;7.64;100.00;100187.66;5072664;28;20185;-69
2023/12/28 05:27:34;;;;;;;3.90;3.50;;;;;;;7.51;100.00;100187.28;5071282;28;20188;-69
2023/12/28 05:29:59;;;;;;;4.27;3.83;;;;;;;7.59;100.00;100189.53;5072401;28;20180;-69
2023/12/28 05:32:24;;;;;;;6.57;4.00;;;;;;;7.55;100.00;100182.88;5064284;28;20233;-71
2023/12/28 05:34:50;;;;;;;3.90;3.47;;;;;;;7.39;100.00;100186.06;5053190;28;20276;-73
2023/12/28 05:37:15;;;;;;;6.60;3.73;;;;;;;7.55;100.00;100190.56;5052587;28;20170;-70
2023/12/28 05:39:40;;;;;;;7.33;3.93;;;;;;;7.45;100.00;100176.47;5071138;28;20271;-70
2023/12/28 05:42:05;;;;;;;8.67;6.27;;;;;;;7.43;100.00;100172.25;5064691;27;20311;-69
2023/12/28 05:44:31;;;;;;;5.80;4.30;;;;;;;7.48;100.00;100184.03;5052569;28;20189;-69
2023/12/28 05:46:57;;;;;;;6.47;4.67;;;;;;;7.37;100.00;100171.69;5052575;28;20215;-69
2023/12/28 05:49:22;;;;;;;6.40;4.70;;;;;;;7.40;100.00;100158.75;5053598;28;20616;-69
2023/12/28 05:51:48;;;;;;;11.43;6.90;;;;;;;7.41;100.00;100155.28;5056427;28;20224;-69
2023/12/28 05:54:13;;;;;;;7.40;4.50;;;;;;;7.26;100.00;100154.19;5054959;28;20276;-68
2023/12/28 05:56:38;;;;;;;5.43;3.47;;;;;;;7.32;100.00;100158.22;5053263;28;20791;-69
2023/12/28 05:59:03;;;;;;;5.37;3.73;;;;;;;7.24;100.00;100158.53;5054371;28;20238;-69
2023/12/28 06:01:29;;;;;;;4.67;4.03;;;;;;;7.19;100.00;100168.09;5053944;28;20236;-69
2023/12/28 06:03:54;;;;;;;4.80;3.70;;;;;;;7.12;100.00;100167.53;5058243;28;20177;-69
2023/12/28 06:06:20;;;;;;;3.47;3.17;;;;;;;7.08;100.00;100171.09;5053104;28;20201;-73
2023/12/28 06:08:46;;;;;;;3.90;3.30;;;;;;;7.04;100.00;100172.09;5052569;28;20181;-70
2023/12/28 06:11:11;;;;;;;8.17;3.93;;;;;;;7.08;100.00;100176.19;5051303;28;20221;-70
2023/12/28 06:13:36;;;;;;;3.30;3.00;;;;;;;7.06;100.00;100172.88;5051851;28;20177;-69
2023/12/28 06:16:02;;;;;;;3.97;3.50;;;;;;;6.99;100.00;100163.78;5053603;28;20188;-70
2023/12/28 06:18:28;;;;;;;3.73;3.23;;;;;;;7.04;100.00;100169.53;5053495;28;20239;-69
2023/12/28 06:20:53;;;;;;;5.87;2.50;;;;;;;7.00;100.00;100171.38;5049114;28;20682;-69
2023/12/28 06:23:19;;;;;;;3.40;3.03;;;;;;;6.88;100.00;100170.13;5061548;28;20181;-69
2023/12/28 06:25:44;;;;;;;3.07;2.60;;;;;;;6.98;100.00;100175.72;5052108;28;20644;-69
2023/12/28 06:28:09;;;;;;;2.97;2.67;;;;;;;6.94;100.00;100177.56;5057128;28;20184;-73
2023/12/28 06:30:35;;;;;;;2.70;2.50;;;;;;;7.00;100.00;100173.94;5051402;28;20703;-69
2023/12/28 06:33:00;;;;;;;2.53;2.33;;;;;;;6.99;100.00;100174.81;5068045;28;20509;-70
2023/12/28 06:35:25;;;;;;;2.20;2.00;;;;;;;6.93;100.00;100175.06;5060348;28;20177;-69
2023/12/28 06:37:50;;;;;;;2.83;2.63;;;;;;;7.00;100.00;100170.56;5067741;28;20234;-69
2023/12/28 06:40:16;;;;;;;2.77;2.43;;;;;;;6.95;100.00;100174.09;5063797;27;20207;-69
2023/12/28 06:42:43;;;;;;;3.57;2.40;;;;;;;6.97;100.00;100163.00;5068872;28;20181;-70
2023/12/28 06:45:09;;;;;;;2.67;2.33;;;;;;;7.00;100.00;100170.56;5060531;28;20668;-70
2023/12/28 06:47:34;;;;;;;2.43;2.23;;;;;;;7.02;100.00;100163.66;5051776;28;20648;-72
2023/12/28 06:50:00;;;;;;;2.50;2.30;;;;;;;7.07;100.00;100167.69;5051943;28;20235;-70
2023/12/28 06:52:25;;;;;;;2.67;2.40;;;;;;;7.05;100.00;100163.53;5056823;28;20225;-70
2023/12/28 06:54:51;;;;;;;2.47;2.27;;;;;;;7.05;100.00;100163.53;5052217;28;20659;-70
2023/12/28 06:57:16;;;;;;;2.60;2.40;;;;;;;7.04;100.00;100174.66;5051304;28;20169;-69
2023/12/28 06:59:41;;;;;;;2.83;2.63;;;;;;;7.11;100.00;100174.34;5051952;28;20196;-69
2023/12/28 07:02:07;;;;;;;2.40;2.20;;;;;;;7.05;100.00;100184.81;5056751;28;20212;-69
2023/12/28 07:04:33;;;;;;;2.83;2.63;;;;;;;7.11;100.00;100184.59;5051619;28;20739;-69
2023/12/28 07:06:58;;;;;;;2.87;2.40;;;;;;;7.00;100.00;100178.25;5068014;28;20219;-69
2023/12/28 07:09:23;;;;;;;3.47;2.60;;;;;;;7.02;100.00;100163.66;5060650;28;20666;-69
2023/12/28 07:11:48;;;;;;;3.70;2.63;;;;;;;7.07;100.00;100162.59;5054339;28;20624;-69
2023/12/28 07:14:14;;;;;;;3.00;2.53;;;;;;;7.07;100.00;100167.69;5054403;28;20185;-69
2023/12/28 07:16:39;;;;;;;3.17;2.73;;;;;;;6.99;100.00;100169.72;5062027;28;20192;-69
2023/12/28 07:19:04;;;;;;;4.13;2.90;;;;;;;7.10;100.00;100187.22;5051344;28;20173;-69
2023/12/28 07:21:29;;;;;;;3.50;3.20;;;;;;;7.11;100.00;100178.66;5071508;28;20586;-73
2023/12/28 07:23:55;;;;;;;2.77;2.57;;;;;;;7.07;100.00;100185.59;5075419;28;20482;-70
2023/12/28 07:26:20;;;;;;;3.20;2.90;;;;;;;7.04;100.00;100190.00;5057308;28;20208;-82
2023/12/28 07:28:48;;;;;;;4.73;2.40;;;;;;;7.06;100.00;100201.03;5069705;28;20631;-69
2023/12/28 07:31:25;;;;;;;2.70;2.50;;;;;;;6.98;100.00;100196.19;5049544;28;20638;-69
2023/12/28 07:33:51;;;;;;;4.17;2.63;;;;;;;7.04;100.00;100190.81;5049768;28;20254;-69
2023/12/28 07:36:17;;;;;;;3.10;2.53;;;;;;;6.98;100.00;100203.84;5051406;28;20526;-68
2023/12/28 07:38:43;;;;;;;2.70;2.50;;;;;;;7.02;100.00;100197.75;5053800;28;20733;-68
2023/12/28 07:41:08;;;;;;;6.47;2.80;;;;;;;7.03;100.00;100207.09;5052988;28;20295;-82
2023/12/28 07:43:33;;;;;;;4.53;2.77;;;;;;;7.01;100.00;100208.88;5054183;28;20292;-69
2023/12/28 07:45:59;;;;;;;2.73;2.47;;;;;;;7.07;100.00;100206.06;5055724;28;20205;-70
2023/12/28 07:48:24;;;;;;;3.20;2.90;;;;;;;7.08;100.00;100201.78;5055537;28;20621;-69
2023/12/28 07:50:51;;;;;;;4.20;3.03;;;;;;;7.11;100.00;100209.34;5049992;28;20224;-70
2023/12/28 07:53:16;;;;;;;3.87;2.70;;;;;;;7.21;100.00;100212.38;5064170;28;20178;-68
2023/12/28 07:55:42;;;;;;;4.23;3.03;;;;;;;7.09;100.00;100213.69;5060630;28;20187;-69
2023/12/28 07:58:07;;;;;;;3.80;3.07;;;;;;;7.03;100.00;100213.91;5057312;28;20267;-69
2023/12/28 08:00:33;;;;;;;6.37;3.23;;;;;;;7.10;100.00;100205.94;5053241;28;20223;-68
2023/12/28 08:02:58;;;;;;;4.23;3.30;;;;;;;7.08;100.00;100202.63;5064290;28;20196;-68
2023/12/28 08:05:24;;;;;;;2.87;2.60;;;;;;;7.09;100.00;100211.13;5064618;28;21007;-69
2023/12/28 08:07:49;;;;;;;4.20;2.87;;;;;;;7.11;100.00;100215.28;5054967;28;20227;-69
2023/12/28 08:10:14;;;;;;;3.50;2.83;;;;;;;7.08;100.00;100204.34;5053379;28;20565;-70
2023/12/28 08:12:39;;;;;;;3.83;3.37;;;;;;;7.09;100.00;100214.53;5057754;28;20185;-68
2023/12/28 08:15:05;;;;;;;2.87;2.67;;;;;;;7.00;100.00;100212.31;5060729;28;20185;-72
2023/12/28 08:17:30;;;;;;;4.27;3.20;;;;;;;7.05;100.00;100209.59;5054644;28;20250;-71
2023/12/28 08:19:56;;;;;;;3.03;2.73;;;;;;;7.07;100.00;100208.63;5059218;28;20216;-69
2023/12/28 08:22:21;;;;;;;4.40;3.13;;;;;;;6.95;100.00;100212.47;5058636;28;20243;-68
2023/12/28 08:24:46;;;;;;;3.40;2.77;;;;;;;7.12;100.00;100203.34;5056322;28;20196;-68
2023/12/28 08:27:12;;;;;;;4.37;3.27;;;;;;;7.10;100.00;100211.06;5054863;28;20197;-69
2023/12/28 08:29:37;;;;;;;5.00;3.10;;;;;;;6.95;100.00;100215.03;5055905;28;20200;-70
2023/12/28 08:32:03;;;;;;;4.27;2.67;;;;;;;7.13;100.00;100209.28;5038887;28;20216;-68
2023/12/28 08:34:28;;;;;;;3.40;3.03;;;;;;;7.30;100.00;100204.34;5054039;28;20544;-70
2023/12/28 08:36:53;;;;;;;4.30;3.20;;;;;;;7.41;100.00;100203.91;5055677;28;20280;-68
2023/12/28 08:39:18;;;;;;;5.67;3.30;;;;;;;7.43;100.00;100197.03;5059542;28;20169;-68
2023/12/28 08:41:44;;;;;;;5.63;3.20;;;;;;;7.40;100.00;100192.84;5058805;28;20904;-68
2023/12/28 08:44:09;;;;;;;5.33;2.73;;;;;;;7.46;100.00;100188.38;5070690;28;20250;-68
2023/12/28 08:46:34;;;;;;;3.77;3.37;;;;;;;7.40;100.00;100189.44;5070797;28;20302;-68
2023/12/28 08:48:59;;;;;;;7.97;3.60;;;;;;;7.51;100.00;100199.28;5068589;28;20188;-68
2023/12/28 08:51:25;;;;;;;4.43;3.40;;;;;;;7.54;100.00;100211.94;5071786;28;20224;-72
2023/12/28 08:53:50;;;;;;;5.10;3.83;;;;;;;7.62;100.00;100203.97;5075343;28;20251;-71
2023/12/28 08:56:22;;;;;;;4.47;3.60;;;;;;;7.66;100.00;100208.06;5071593;28;20652;-70
2023/12/28 08:58:49;;;;;;;5.33;3.93;;;;;;;7.67;100.00;100208.00;5068680;28;20184;-69
2023/12/28 09:01:22;;;;;;;4.00;3.27;;;;;;;7.77;100.00;100211.00;5070633;28;20336;-69
2023/12/28 09:03:49;;;;;;;3.80;3.10;;;;;;;7.85;100.00;100224.34;5070524;28;20181;-68
2023/12/28 09:06:15;;;;;;;4.10;3.53;;;;;;;7.88;100.00;100226.75;5072407;28;20213;-71
2023/12/28 09:08:47;;;;;;;6.77;3.93;;;;;;;7.97;100.00;100222.16;5071576;28;20582;-69
2023/12/28 09:11:13;;;;;;;7.17;3.47;;;;;;;8.07;100.00;100218.31;5059561;28;20295;-68
2023/12/28 09:13:39;;;;;;;7.03;3.67;;;;;;;8.07;100.00;100228.56;5063709;28;20256;-68
2023/12/28 09:16:07;;;;;;;4.53;2.80;;;;;;;8.44;100.00;100226.97;5072092;28;20584;-67
2023/12/28 09:18:33;;;;;;;3.30;3.00;;;;;;;8.86;100.00;100233.69;5071819;28;20184;-67
2023/12/28 09:20:58;;;;;;;7.63;2.70;;;;;;;9.31;100.00;100233.38;5069083;27;20231;-67
2023/12/28 09:23:23;;;;;;;4.40;3.20;;;;;;;10.06;100.00;100217.78;5071177;28;20237;-68
2023/12/28 09:25:49;;;;;;;3.40;2.67;;;;;;;10.70;100.00;100223.09;5071683;28;20189;-67
2023/12/28 09:28:14;;;;;;;2.90;2.60;;;;;;;11.59;100.00;100227.69;5072196;28;20185;-67
2023/12/28 09:30:39;;;;;;;3.23;2.43;;;;;;;12.35;100.00;100229.31;5060558;28;20351;-71
2023/12/28 09:33:05;;;;;;;4.03;2.40;;;;;;;12.56;100.00;100226.38;5069040;28;20185;-71
2023/12/28 09:35:31;;;;;;;2.73;2.20;;;;;;;12.85;100.00;100224.59;5061020;28;20188;-69
2023/12/28 09:37:56;;;;;;;4.63;2.23;;;;;;;13.15;100.00;100225.34;5053129;28;20291;-69
2023/12/28 09:40:21;;;;;;;4.43;2.47;;;;;;;12.95;100.00;100224.84;5045644;28;20237;-68
2023/12/28 09:43:06;;;;;;;3.83;2.40;;;;;;;13.55;100.00;100233.16;5066059;28;20178;-68
2023/12/28 09:45:32;;;;;;;3.57;2.47;;;;;;;13.25;100.00;100239.31;5051753;28;20270;-68
2023/12/28 09:47:57;;;;;;;2.80;2.30;;;;;;;14.45;100.00;100247.88;5052988;28;20178;-68
2023/12/28 09:50:26;;;;;;;3.07;2.57;;;;;;;14.85;100.00;100242.59;5045153;28;20221;-68
2023/12/28 09:52:52;;;;;;;3.93;2.10;;;;;;;14.26;100.00;100240.56;5065259;28;20200;-68
2023/12/28 09:55:17;;;;;;;4.47;2.33;;;;;;;13.60;100.00;100245.78;5051960;28;20174;-68
2023/12/28 09:57:43;;;;;;;2.50;2.00;;;;;;;12.63;100.00;100247.44;5052916;28;20675;-69
2023/12/28 10:00:10;;;;;;;2.30;2.10;;;;;;;12.29;100.00;100255.47;5043085;28;20664;-68
2023/12/28 10:02:36;;;;;;;2.27;2.07;;;;;;;11.83;100.00;100256.38;5051356;28;20173;-68
2023/12/28 10:05:01;;;;;;;6.10;2.50;;;;;;;12.57;100.00;100235.78;5052880;28;20200;-68
2023/12/28 10:07:26;;;;;;;2.60;2.10;;;;;;;12.51;100.00;100233.56;5052081;28;20205;-68
2023/12/28 10:09:52;;;;;;;4.73;2.10;;;;;;;11.91;100.00;100238.72;5052470;28;20519;-68
2023/12/28 10:12:17;;;;;;;2.37;2.00;;;;;;;11.35;100.00;100240.19;5041898;28;20224;-68
2023/12/28 10:14:43;;;;;;;4.77;2.20;;;;;;;10.48;100.00;100240.50;5053308;28;20543;-68
2023/12/28 10:17:09;;;;;;;3.00;2.50;;;;;;;10.12;100.00;100246.59;5052676;28;20259;-68
2023/12/28 10:19:34;;;;;;;2.77;1.93;;;;;;;9.75;100.00;100240.69;5053118;28;20272;-68
2023/12/28 10:22:00;;;;;;;3.60;2.50;;;;;;;9.62;100.00;100245.59;5057335;28;20642;-68
2023/12/28 10:24:25;;;;;;;4.80;2.50;;;;;;;9.55;100.00;100241.66;5053246;28;20185;-69
2023/12/28 10:26:52;;;;;;;3.50;2.70;;;;;;;9.61;100.00;100248.22;5052133;28;20189;-68
2023/12/28 10:29:17;;;;;;;2.83;2.40;;;;;;;9.74;100.00;100248.50;5051716;28;20177;-67
2023/12/28 10:31:43;;;;;;;5.20;2.70;;;;;;;9.58;100.00;100243.25;5054706;28;20301;-68
2023/12/28 10:34:08;;;;;;;4.83;2.23;;;;;;;9.59;100.00;100237.19;5054510;28;20537;-68
2023/12/28 10:36:36;;;;;;;4.63;2.70;;;;;;;9.38;100.00;100239.91;5058990;28;20199;-68
2023/12/28 10:39:04;;;;;;;2.50;2.30;;;;;;;9.35;100.00;100238.31;5069029;28;20177;-68
2023/12/28 10:41:30;;;;;;;2.47;2.20;;;;;;;9.28;100.00;100229.22;5059475;28;20240;-67
2023/12/28 10:44:03;;;;;;;5.47;3.20;;;;;;;9.21;100.00;100232.97;5069382;28;20183;-67
2023/12/28 10:46:31;;;;;;;2.67;2.10;;;;;;;9.08;100.00;100237.88;5069189;28;20228;-67
2023/12/28 10:49:14;;;;;;;3.10;2.00;;;;;;;9.08;100.00;100245.56;5069995;28;20183;-67
2023/12/28 10:51:43;;;;;;;4.27;2.40;;;;;;;9.04;100.00;100238.88;5062390;28;20220;-67
2023/12/28 10:54:36;;;;;;;3.70;2.20;;;;;;;8.98;100.00;100232.31;5050468;28;20182;-66
2023/12/28 10:57:27;;;;;;;3.60;2.40;;;;;;;9.19;100.00;100233.06;5052347;28;20181;-67
2023/12/28 11:00:13;;;;;;;4.00;2.37;;;;;;;9.13;100.00;100227.38;5051229;28;20319;-67
2023/12/28 11:02:45;;;;;;;4.83;2.23;;;;;;;9.39;100.00;100235.59;5029181;28;20212;-67
2023/12/28 11:05:12;;;;;;;3.53;2.50;;;;;;;9.57;100.00;100234.69;5052280;28;20189;-68
2023/12/28 11:07:39;;;;;;;3.87;2.33;;;;;;;9.61;100.00;100228.53;5062436;28;20278;-68
2023/12/28 11:10:06;;;;;;;10.13;2.47;;;;;;;9.65;100.00;100224.06;5050005;28;20215;-68
2023/12/28 11:12:33;;;;;;;3.07;2.07;;;;;;;9.67;100.00;100233.38;5070614;28;20189;-68
2023/12/28 11:14:59;;;;;;;4.80;2.20;;;;;;;9.58;100.00;100222.72;5049940;28;20260;-67
2023/12/28 11:17:25;;;;;;;3.60;1.80;;;;;;;9.60;100.00;100224.28;5051822;28;20728;-67